sensor_id;sensor_type;location;lat;lon;timestamp;P1;durP1;ratioP1;P2;durP2;ratioP2
71878;SDS011;59755;43.834;4.364;2022-09-09T00:06:27;5.28;;;1.50;;
71878;SDS011;59755;43.834;4.364;2022-09-09T00:11:24;5.05;;;1.60;;
71878;SDS011;59755;43.834;4.364;2022-09-09T00:13:57;4.55;;;1.45;;
71878;SDS011;59755;43.834;4.364;2022-09-09T00:16:29;4.63;;;1.40;;
71878;SDS011;59755;43.834;4.364;2022-09-09T00:19:21;3.90;;;1.50;;
71878;SDS011;59755;43.834;4.364;2022-09-09T00:22:04;4.45;;;1.38;;
71878;SDS011;59755;43.834;4.364;2022-09-09T00:24:54;4.07;;;1.23;;
71878;SDS011;59755;43.834;4.364;2022-09-09T00:27:42;5.72;;;1.50;;
71878;SDS011;59755;43.834;4.364;2022-09-09T00:30:15;4.38;;;1.45;;
71878;SDS011;59755;43.834;4.364;2022-09-09T00:32:50;3.53;;;1.25;;
71878;SDS011;59755;43.834;4.364;2022-09-09T00:37:49;4.70;;;1.30;;
71878;SDS011;59755;43.834;4.364;2022-09-09T00:40:22;4.57;;;1.40;;
71878;SDS011;59755;43.834;4.364;2022-09-09T00:43:14;4.68;;;1.33;;
71878;SDS011;59755;43.834;4.364;2022-09-09T00:48:48;4.90;;;1.52;;
71878;SDS011;59755;43.834;4.364;2022-09-09T01:02:47;4.32;;;1.48;;
71878;SDS011;59755;43.834;4.364;2022-09-09T01:05:34;5.13;;;1.58;;
71878;SDS011;59755;43.834;4.364;2022-09-09T01:08:26;3.83;;;1.40;;
71878;SDS011;59755;43.834;4.364;2022-09-09T01:11:22;4.15;;;1.33;;
71878;SDS011;59755;43.834;4.364;2022-09-09T01:16:50;4.00;;;1.33;;
71878;SDS011;59755;43.834;4.364;2022-09-09T01:19:24;4.50;;;1.40;;
71878;SDS011;59755;43.834;4.364;2022-09-09T01:22:46;6.40;;;1.60;;
71878;SDS011;59755;43.834;4.364;2022-09-09T01:28:02;6.63;;;1.67;;
71878;SDS011;59755;43.834;4.364;2022-09-09T01:30:33;5.63;;;1.50;;
71878;SDS011;59755;43.834;4.364;2022-09-09T01:33:03;4.78;;;1.60;;
71878;SDS011;59755;43.834;4.364;2022-09-09T01:35:34;5.20;;;1.33;;
71878;SDS011;59755;43.834;4.364;2022-09-09T01:38:03;5.00;;;1.45;;
71878;SDS011;59755;43.834;4.364;2022-09-09T01:40:29;5.32;;;1.50;;
71878;SDS011;59755;43.834;4.364;2022-09-09T01:42:55;5.18;;;1.42;;
71878;SDS011;59755;43.834;4.364;2022-09-09T01:45:22;4.88;;;1.42;;
71878;SDS011;59755;43.834;4.364;2022-09-09T01:47:48;5.07;;;1.42;;
71878;SDS011;59755;43.834;4.364;2022-09-09T01:50:16;6.32;;;1.40;;
71878;SDS011;59755;43.834;4.364;2022-09-09T01:52:42;4.07;;;1.33;;
71878;SDS011;59755;43.834;4.364;2022-09-09T01:55:10;3.20;;;1.33;;
71878;SDS011;59755;43.834;4.364;2022-09-09T01:57:50;5.57;;;1.33;;
71878;SDS011;59755;43.834;4.364;2022-09-09T02:00:27;4.97;;;1.20;;
71878;SDS011;59755;43.834;4.364;2022-09-09T02:05:48;3.63;;;1.38;;
71878;SDS011;59755;43.834;4.364;2022-09-09T02:08:21;3.80;;;1.23;;
71878;SDS011;59755;43.834;4.364;2022-09-09T02:11:05;4.93;;;1.40;;
71878;SDS011;59755;43.834;4.364;2022-09-09T02:13:36;3.47;;;1.27;;
71878;SDS011;59755;43.834;4.364;2022-09-09T02:21:24;4.25;;;1.38;;
71878;SDS011;59755;43.834;4.364;2022-09-09T02:23:53;4.60;;;1.23;;
71878;SDS011;59755;43.834;4.364;2022-09-09T02:26:24;5.00;;;1.30;;
71878;SDS011;59755;43.834;4.364;2022-09-09T02:28:52;5.65;;;1.33;;
71878;SDS011;59755;43.834;4.364;2022-09-09T02:31:21;5.95;;;1.30;;
71878;SDS011;59755;43.834;4.364;2022-09-09T02:33:51;3.95;;;1.20;;
71878;SDS011;59755;43.834;4.364;2022-09-09T02:36:23;4.63;;;1.25;;
71878;SDS011;59755;43.834;4.364;2022-09-09T02:38:51;4.85;;;1.40;;
71878;SDS011;59755;43.834;4.364;2022-09-09T02:41:20;4.90;;;1.27;;
71878;SDS011;59755;43.834;4.364;2022-09-09T02:43:49;5.65;;;1.50;;
71878;SDS011;59755;43.834;4.364;2022-09-09T02:59:44;5.95;;;1.40;;
71878;SDS011;59755;43.834;4.364;2022-09-09T03:02:10;4.90;;;1.40;;
71878;SDS011;59755;43.834;4.364;2022-09-09T03:04:37;4.88;;;1.48;;
71878;SDS011;59755;43.834;4.364;2022-09-09T03:07:03;4.50;;;1.50;;
71878;SDS011;59755;43.834;4.364;2022-09-09T03:09:29;6.03;;;1.60;;
71878;SDS011;59755;43.834;4.364;2022-09-09T03:11:55;5.03;;;1.77;;
71878;SDS011;59755;43.834;4.364;2022-09-09T03:14:22;5.38;;;1.40;;
71878;SDS011;59755;43.834;4.364;2022-09-09T03:16:50;6.20;;;1.55;;
71878;SDS011;59755;43.834;4.364;2022-09-09T03:19:16;5.32;;;1.50;;
71878;SDS011;59755;43.834;4.364;2022-09-09T03:21:43;4.88;;;1.55;;
71878;SDS011;59755;43.834;4.364;2022-09-09T03:24:10;4.85;;;1.40;;
71878;SDS011;59755;43.834;4.364;2022-09-09T03:26:36;5.90;;;1.55;;
71878;SDS011;59755;43.834;4.364;2022-09-09T03:29:03;6.00;;;1.58;;
71878;SDS011;59755;43.834;4.364;2022-09-09T03:31:31;4.50;;;1.30;;
71878;SDS011;59755;43.834;4.364;2022-09-09T03:34:02;4.88;;;1.52;;
71878;SDS011;59755;43.834;4.364;2022-09-09T03:36:27;4.60;;;1.40;;
71878;SDS011;59755;43.834;4.364;2022-09-09T03:38:54;5.47;;;1.52;;
71878;SDS011;59755;43.834;4.364;2022-09-09T03:41:23;4.13;;;1.30;;
71878;SDS011;59755;43.834;4.364;2022-09-09T03:43:50;6.15;;;1.75;;
71878;SDS011;59755;43.834;4.364;2022-09-09T03:46:16;6.50;;;1.73;;
71878;SDS011;59755;43.834;4.364;2022-09-09T03:48:43;4.45;;;1.50;;
71878;SDS011;59755;43.834;4.364;2022-09-09T03:51:09;5.30;;;1.70;;
71878;SDS011;59755;43.834;4.364;2022-09-09T03:53:35;4.75;;;1.60;;
71878;SDS011;59755;43.834;4.364;2022-09-09T03:56:02;4.55;;;1.58;;
71878;SDS011;59755;43.834;4.364;2022-09-09T03:58:29;5.18;;;1.63;;
71878;SDS011;59755;43.834;4.364;2022-09-09T04:00:55;5.10;;;1.40;;
71878;SDS011;59755;43.834;4.364;2022-09-09T04:03:23;6.43;;;1.58;;
71878;SDS011;59755;43.834;4.364;2022-09-09T04:05:53;5.20;;;1.65;;
71878;SDS011;59755;43.834;4.364;2022-09-09T04:08:20;4.72;;;1.63;;
71878;SDS011;59755;43.834;4.364;2022-09-09T04:10:49;7.78;;;1.80;;
71878;SDS011;59755;43.834;4.364;2022-09-09T04:13:15;7.13;;;1.88;;
71878;SDS011;59755;43.834;4.364;2022-09-09T04:15:43;6.80;;;1.65;;
71878;SDS011;59755;43.834;4.364;2022-09-09T04:18:10;4.85;;;1.60;;
71878;SDS011;59755;43.834;4.364;2022-09-09T04:20:36;7.93;;;2.13;;
71878;SDS011;59755;43.834;4.364;2022-09-09T04:23:03;6.20;;;2.22;;
71878;SDS011;59755;43.834;4.364;2022-09-09T04:25:29;8.20;;;2.05;;
71878;SDS011;59755;43.834;4.364;2022-09-09T04:27:55;8.27;;;2.70;;
71878;SDS011;59755;43.834;4.364;2022-09-09T04:30:22;6.25;;;2.10;;
71878;SDS011;59755;43.834;4.364;2022-09-09T04:32:48;7.28;;;2.25;;
71878;SDS011;59755;43.834;4.364;2022-09-09T04:35:14;7.97;;;1.90;;
71878;SDS011;59755;43.834;4.364;2022-09-09T04:37:40;7.22;;;2.33;;
71878;SDS011;59755;43.834;4.364;2022-09-09T04:40:06;7.45;;;1.88;;
71878;SDS011;59755;43.834;4.364;2022-09-09T04:42:38;5.22;;;1.95;;
71878;SDS011;59755;43.834;4.364;2022-09-09T04:45:05;7.47;;;2.38;;
71878;SDS011;59755;43.834;4.364;2022-09-09T04:47:32;8.80;;;2.45;;
71878;SDS011;59755;43.834;4.364;2022-09-09T04:49:57;5.05;;;2.05;;
71878;SDS011;59755;43.834;4.364;2022-09-09T04:52:24;7.80;;;2.17;;
71878;SDS011;59755;43.834;4.364;2022-09-09T04:54:49;5.82;;;2.00;;
71878;SDS011;59755;43.834;4.364;2022-09-09T04:57:15;7.25;;;2.20;;
71878;SDS011;59755;43.834;4.364;2022-09-09T04:59:40;5.55;;;1.90;;
71878;SDS011;59755;43.834;4.364;2022-09-09T05:02:06;5.68;;;2.10;;
71878;SDS011;59755;43.834;4.364;2022-09-09T05:04:32;6.80;;;1.85;;
71878;SDS011;59755;43.834;4.364;2022-09-09T05:06:58;6.63;;;1.90;;
71878;SDS011;59755;43.834;4.364;2022-09-09T05:09:24;4.85;;;1.75;;
71878;SDS011;59755;43.834;4.364;2022-09-09T05:11:50;5.75;;;1.90;;
71878;SDS011;59755;43.834;4.364;2022-09-09T05:14:16;6.93;;;1.83;;
71878;SDS011;59755;43.834;4.364;2022-09-09T05:16:43;7.03;;;1.77;;
71878;SDS011;59755;43.834;4.364;2022-09-09T05:19:10;5.75;;;1.90;;
71878;SDS011;59755;43.834;4.364;2022-09-09T05:21:36;6.30;;;2.15;;
71878;SDS011;59755;43.834;4.364;2022-09-09T05:24:02;3.75;;;1.50;;
71878;SDS011;59755;43.834;4.364;2022-09-09T05:26:28;4.20;;;1.90;;
71878;SDS011;59755;43.834;4.364;2022-09-09T05:28:57;5.55;;;1.90;;
71878;SDS011;59755;43.834;4.364;2022-09-09T05:31:25;5.85;;;1.95;;
71878;SDS011;59755;43.834;4.364;2022-09-09T05:33:53;10.10;;;1.80;;
71878;SDS011;59755;43.834;4.364;2022-09-09T05:36:20;6.93;;;1.90;;
71878;SDS011;59755;43.834;4.364;2022-09-09T05:38:46;6.88;;;1.88;;
71878;SDS011;59755;43.834;4.364;2022-09-09T05:41:13;6.45;;;1.77;;
71878;SDS011;59755;43.834;4.364;2022-09-09T05:43:42;5.72;;;1.42;;
71878;SDS011;59755;43.834;4.364;2022-09-09T05:46:10;6.35;;;1.50;;
71878;SDS011;59755;43.834;4.364;2022-09-09T05:48:38;6.20;;;1.98;;
71878;SDS011;59755;43.834;4.364;2022-09-09T05:51:06;5.30;;;1.50;;
71878;SDS011;59755;43.834;4.364;2022-09-09T05:53:33;5.40;;;1.55;;
71878;SDS011;59755;43.834;4.364;2022-09-09T05:56:00;5.35;;;1.70;;
71878;SDS011;59755;43.834;4.364;2022-09-09T05:58:29;5.07;;;1.70;;
71878;SDS011;59755;43.834;4.364;2022-09-09T06:01:08;5.80;;;1.77;;
71878;SDS011;59755;43.834;4.364;2022-09-09T06:03:42;7.03;;;1.70;;
71878;SDS011;59755;43.834;4.364;2022-09-09T06:06:10;6.40;;;1.70;;
71878;SDS011;59755;43.834;4.364;2022-09-09T06:08:37;5.72;;;1.60;;
71878;SDS011;59755;43.834;4.364;2022-09-09T06:11:05;7.22;;;1.77;;
71878;SDS011;59755;43.834;4.364;2022-09-09T06:13:37;5.50;;;1.52;;
71878;SDS011;59755;43.834;4.364;2022-09-09T06:16:04;7.32;;;1.70;;
71878;SDS011;59755;43.834;4.364;2022-09-09T06:18:32;6.88;;;1.88;;
71878;SDS011;59755;43.834;4.364;2022-09-09T06:20:59;5.57;;;2.05;;
71878;SDS011;59755;43.834;4.364;2022-09-09T06:23:26;4.35;;;1.50;;
71878;SDS011;59755;43.834;4.364;2022-09-09T06:26:06;3.75;;;1.40;;
71878;SDS011;59755;43.834;4.364;2022-09-09T06:28:35;5.43;;;1.40;;
71878;SDS011;59755;43.834;4.364;2022-09-09T06:31:06;7.35;;;1.50;;
71878;SDS011;59755;43.834;4.364;2022-09-09T06:33:34;7.55;;;1.60;;
71878;SDS011;59755;43.834;4.364;2022-09-09T06:36:11;6.88;;;1.63;;
71878;SDS011;59755;43.834;4.364;2022-09-09T06:38:38;4.53;;;1.70;;
71878;SDS011;59755;43.834;4.364;2022-09-09T06:41:04;6.43;;;1.80;;
71878;SDS011;59755;43.834;4.364;2022-09-09T06:43:30;5.40;;;1.63;;
71878;SDS011;59755;43.834;4.364;2022-09-09T06:45:57;8.25;;;2.22;;
71878;SDS011;59755;43.834;4.364;2022-09-09T06:48:23;10.48;;;2.30;;
71878;SDS011;59755;43.834;4.364;2022-09-09T06:50:51;9.00;;;2.05;;
71878;SDS011;59755;43.834;4.364;2022-09-09T06:53:25;10.02;;;2.05;;
71878;SDS011;59755;43.834;4.364;2022-09-09T06:55:52;8.80;;;2.00;;
71878;SDS011;59755;43.834;4.364;2022-09-09T06:58:18;7.38;;;2.10;;
71878;SDS011;59755;43.834;4.364;2022-09-09T07:00:43;7.97;;;2.20;;
71878;SDS011;59755;43.834;4.364;2022-09-09T07:03:10;6.10;;;1.92;;
71878;SDS011;59755;43.834;4.364;2022-09-09T07:05:35;6.68;;;1.90;;
71878;SDS011;59755;43.834;4.364;2022-09-09T07:08:02;7.65;;;1.80;;
71878;SDS011;59755;43.834;4.364;2022-09-09T07:10:27;7.78;;;2.00;;
71878;SDS011;59755;43.834;4.364;2022-09-09T07:12:53;7.43;;;1.90;;
71878;SDS011;59755;43.834;4.364;2022-09-09T07:15:20;10.18;;;2.05;;
71878;SDS011;59755;43.834;4.364;2022-09-09T07:17:49;6.22;;;2.05;;
71878;SDS011;59755;43.834;4.364;2022-09-09T07:20:15;6.60;;;2.08;;
71878;SDS011;59755;43.834;4.364;2022-09-09T07:22:41;6.10;;;1.98;;
71878;SDS011;59755;43.834;4.364;2022-09-09T07:25:07;11.27;;;2.03;;
71878;SDS011;59755;43.834;4.364;2022-09-09T07:27:33;9.88;;;2.13;;
71878;SDS011;59755;43.834;4.364;2022-09-09T07:29:59;7.10;;;2.28;;
71878;SDS011;59755;43.834;4.364;2022-09-09T07:32:24;8.20;;;2.25;;
71878;SDS011;59755;43.834;4.364;2022-09-09T07:34:55;6.27;;;1.63;;
71878;SDS011;59755;43.834;4.364;2022-09-09T07:37:23;5.53;;;1.67;;
71878;SDS011;59755;43.834;4.364;2022-09-09T07:39:49;5.72;;;1.85;;
71878;SDS011;59755;43.834;4.364;2022-09-09T07:42:16;5.68;;;1.70;;
71878;SDS011;59755;43.834;4.364;2022-09-09T07:44:41;5.28;;;1.70;;
71878;SDS011;59755;43.834;4.364;2022-09-09T07:47:07;7.00;;;2.05;;
71878;SDS011;59755;43.834;4.364;2022-09-09T07:49:33;5.47;;;1.55;;
71878;SDS011;59755;43.834;4.364;2022-09-09T07:51:59;6.05;;;2.00;;
71878;SDS011;59755;43.834;4.364;2022-09-09T07:54:25;9.82;;;2.20;;
71878;SDS011;59755;43.834;4.364;2022-09-09T07:56:51;7.55;;;2.20;;
71878;SDS011;59755;43.834;4.364;2022-09-09T07:59:17;9.10;;;2.20;;
71878;SDS011;59755;43.834;4.364;2022-09-09T08:01:47;6.25;;;1.85;;
71878;SDS011;59755;43.834;4.364;2022-09-09T08:04:18;7.35;;;1.80;;
71878;SDS011;59755;43.834;4.364;2022-09-09T08:06:55;6.88;;;1.95;;
71878;SDS011;59755;43.834;4.364;2022-09-09T08:09:23;5.13;;;1.73;;
71878;SDS011;59755;43.834;4.364;2022-09-09T08:11:51;6.97;;;2.25;;
71878;SDS011;59755;43.834;4.364;2022-09-09T08:14:18;5.22;;;2.10;;
71878;SDS011;59755;43.834;4.364;2022-09-09T08:16:44;5.82;;;1.63;;
71878;SDS011;59755;43.834;4.364;2022-09-09T08:19:12;5.45;;;1.88;;
71878;SDS011;59755;43.834;4.364;2022-09-09T08:21:40;5.30;;;1.50;;
71878;SDS011;59755;43.834;4.364;2022-09-09T08:24:06;4.38;;;1.50;;
71878;SDS011;59755;43.834;4.364;2022-09-09T08:26:39;4.50;;;1.48;;
71878;SDS011;59755;43.834;4.364;2022-09-09T08:29:07;3.95;;;1.25;;
71878;SDS011;59755;43.834;4.364;2022-09-09T08:31:45;4.78;;;1.30;;
71878;SDS011;59755;43.834;4.364;2022-09-09T08:34:16;4.70;;;1.42;;
71878;SDS011;59755;43.834;4.364;2022-09-09T08:36:45;4.93;;;1.42;;
71878;SDS011;59755;43.834;4.364;2022-09-09T08:39:13;3.78;;;1.30;;
71878;SDS011;59755;43.834;4.364;2022-09-09T08:55:48;5.40;;;1.40;;
71878;SDS011;59755;43.834;4.364;2022-09-09T08:58:24;5.32;;;1.45;;
71878;SDS011;59755;43.834;4.364;2022-09-09T09:11:56;3.72;;;1.35;;
71878;SDS011;59755;43.834;4.364;2022-09-09T09:14:26;5.20;;;1.40;;
71878;SDS011;59755;43.834;4.364;2022-09-09T09:17:02;4.47;;;1.40;;
71878;SDS011;59755;43.834;4.364;2022-09-09T09:19:32;6.20;;;1.50;;
71878;SDS011;59755;43.834;4.364;2022-09-09T09:30:20;6.07;;;1.35;;
71878;SDS011;59755;43.834;4.364;2022-09-09T09:32:53;4.78;;;1.30;;
71878;SDS011;59755;43.834;4.364;2022-09-09T09:35:23;4.25;;;1.27;;
71878;SDS011;59755;43.834;4.364;2022-09-09T09:37:49;5.13;;;1.30;;
71878;SDS011;59755;43.834;4.364;2022-09-09T09:40:19;6.95;;;1.45;;
71878;SDS011;59755;43.834;4.364;2022-09-09T09:42:53;4.15;;;1.42;;
71878;SDS011;59755;43.834;4.364;2022-09-09T09:45:35;5.68;;;1.42;;
71878;SDS011;59755;43.834;4.364;2022-09-09T09:48:10;5.18;;;1.35;;
71878;SDS011;59755;43.834;4.364;2022-09-09T09:50:46;4.55;;;1.30;;
71878;SDS011;59755;43.834;4.364;2022-09-09T09:53:26;5.82;;;1.30;;
71878;SDS011;59755;43.834;4.364;2022-09-09T09:56:04;4.25;;;1.40;;
71878;SDS011;59755;43.834;4.364;2022-09-09T10:03:50;9.20;;;2.23;;
71878;SDS011;59755;43.834;4.364;2022-09-09T10:06:28;7.18;;;1.70;;
71878;SDS011;59755;43.834;4.364;2022-09-09T10:08:55;7.50;;;1.52;;
71878;SDS011;59755;43.834;4.364;2022-09-09T10:11:33;3.55;;;1.23;;
71878;SDS011;59755;43.834;4.364;2022-09-09T10:14:30;5.35;;;1.42;;
71878;SDS011;59755;43.834;4.364;2022-09-09T10:20:16;5.57;;;1.33;;
71878;SDS011;59755;43.834;4.364;2022-09-09T10:28:43;4.80;;;1.42;;
71878;SDS011;59755;43.834;4.364;2022-09-09T10:31:39;5.88;;;1.40;;
71878;SDS011;59755;43.834;4.364;2022-09-09T10:36:48;3.67;;;1.27;;
71878;SDS011;59755;43.834;4.364;2022-09-09T10:52:55;5.13;;;1.23;;
71878;SDS011;59755;43.834;4.364;2022-09-09T10:55:37;4.35;;;1.20;;
71878;SDS011;59755;43.834;4.364;2022-09-09T10:58:15;6.40;;;1.40;;
71878;SDS011;59755;43.834;4.364;2022-09-09T11:00:46;5.68;;;1.30;;
71878;SDS011;59755;43.834;4.364;2022-09-09T11:03:28;5.60;;;1.50;;
71878;SDS011;59755;43.834;4.364;2022-09-09T11:06:11;3.80;;;1.05;;
71878;SDS011;59755;43.834;4.364;2022-09-09T11:08:42;5.22;;;1.50;;
71878;SDS011;59755;43.834;4.364;2022-09-09T11:11:29;3.58;;;1.30;;
71878;SDS011;59755;43.834;4.364;2022-09-09T11:14:37;5.78;;;1.27;;
71878;SDS011;59755;43.834;4.364;2022-09-09T11:17:47;3.85;;;1.30;;
71878;SDS011;59755;43.834;4.364;2022-09-09T11:20:00;4.18;;;1.50;;
71878;SDS011;59755;43.834;4.364;2022-09-09T11:25:18;4.95;;;1.13;;
71878;SDS011;59755;43.834;4.364;2022-09-09T11:28:07;3.95;;;1.10;;
71878;SDS011;59755;43.834;4.364;2022-09-09T11:33:18;4.18;;;1.20;;
71878;SDS011;59755;43.834;4.364;2022-09-09T11:42:12;5.22;;;1.52;;
71878;SDS011;59755;43.834;4.364;2022-09-09T11:44:46;6.75;;;1.30;;
71878;SDS011;59755;43.834;4.364;2022-09-09T11:49:55;4.55;;;1.20;;
71878;SDS011;59755;43.834;4.364;2022-09-09T11:52:40;3.53;;;1.20;;
71878;SDS011;59755;43.834;4.364;2022-09-09T11:55:30;5.43;;;1.30;;
71878;SDS011;59755;43.834;4.364;2022-09-09T12:00:41;3.35;;;1.23;;
71878;SDS011;59755;43.834;4.364;2022-09-09T12:05:53;3.83;;;1.20;;
71878;SDS011;59755;43.834;4.364;2022-09-09T12:08:27;4.03;;;1.20;;
71878;SDS011;59755;43.834;4.364;2022-09-09T12:10:58;3.60;;;1.25;;
71878;SDS011;59755;43.834;4.364;2022-09-09T12:13:28;3.53;;;1.15;;
71878;SDS011;59755;43.834;4.364;2022-09-09T12:15:56;3.78;;;1.00;;
71878;SDS011;59755;43.834;4.364;2022-09-09T12:18:24;3.40;;;1.15;;
71878;SDS011;59755;43.834;4.364;2022-09-09T12:23:45;3.92;;;1.10;;
71878;SDS011;59755;43.834;4.364;2022-09-09T12:26:24;3.75;;;1.20;;
71878;SDS011;59755;43.834;4.364;2022-09-09T12:29:12;3.88;;;1.45;;
71878;SDS011;59755;43.834;4.364;2022-09-09T12:40:21;4.28;;;1.23;;
71878;SDS011;59755;43.834;4.364;2022-09-09T12:42:51;3.47;;;1.20;;
71878;SDS011;59755;43.834;4.364;2022-09-09T12:45:18;3.22;;;1.13;;
71878;SDS011;59755;43.834;4.364;2022-09-09T12:50:48;4.65;;;1.30;;
71878;SDS011;59755;43.834;4.364;2022-09-09T12:56:09;6.35;;;1.60;;
71878;SDS011;59755;43.834;4.364;2022-09-09T12:58:44;3.53;;;1.30;;
71878;SDS011;59755;43.834;4.364;2022-09-09T13:01:22;5.38;;;1.35;;
71878;SDS011;59755;43.834;4.364;2022-09-09T13:03:58;5.22;;;1.58;;
71878;SDS011;59755;43.834;4.364;2022-09-09T13:06:26;5.78;;;1.50;;
71878;SDS011;59755;43.834;4.364;2022-09-09T13:08:55;4.80;;;1.40;;
71878;SDS011;59755;43.834;4.364;2022-09-09T13:11:23;4.25;;;1.30;;
71878;SDS011;59755;43.834;4.364;2022-09-09T13:13:54;3.47;;;1.30;;
71878;SDS011;59755;43.834;4.364;2022-09-09T13:16:30;5.25;;;1.67;;
71878;SDS011;59755;43.834;4.364;2022-09-09T13:19:07;5.05;;;1.50;;
71878;SDS011;59755;43.834;4.364;2022-09-09T13:21:35;3.95;;;1.30;;
71878;SDS011;59755;43.834;4.364;2022-09-09T13:24:07;4.05;;;1.30;;
71878;SDS011;59755;43.834;4.364;2022-09-09T13:26:53;4.30;;;1.17;;
71878;SDS011;59755;43.834;4.364;2022-09-09T13:29:23;4.50;;;1.40;;
71878;SDS011;59755;43.834;4.364;2022-09-09T13:31:50;3.90;;;1.50;;
71878;SDS011;59755;43.834;4.364;2022-09-09T13:34:27;4.32;;;1.30;;
71878;SDS011;59755;43.834;4.364;2022-09-09T13:37:01;4.55;;;1.40;;
71878;SDS011;59755;43.834;4.364;2022-09-09T13:39:30;5.75;;;1.70;;
71878;SDS011;59755;43.834;4.364;2022-09-09T13:42:00;4.53;;;1.63;;
71878;SDS011;59755;43.834;4.364;2022-09-09T13:44:31;4.15;;;1.20;;
71878;SDS011;59755;43.834;4.364;2022-09-09T13:49:46;4.05;;;1.48;;
71878;SDS011;59755;43.834;4.364;2022-09-09T13:52:16;4.60;;;1.60;;
71878;SDS011;59755;43.834;4.364;2022-09-09T13:54:52;7.03;;;1.55;;
71878;SDS011;59755;43.834;4.364;2022-09-09T13:57:23;4.80;;;1.40;;
71878;SDS011;59755;43.834;4.364;2022-09-09T13:59:50;7.32;;;1.58;;
71878;SDS011;59755;43.834;4.364;2022-09-09T14:02:17;4.88;;;1.48;;
71878;SDS011;59755;43.834;4.364;2022-09-09T14:04:43;4.05;;;1.13;;
71878;SDS011;59755;43.834;4.364;2022-09-09T14:07:13;4.13;;;1.20;;
71878;SDS011;59755;43.834;4.364;2022-09-09T14:09:39;3.95;;;1.27;;
71878;SDS011;59755;43.834;4.364;2022-09-09T14:12:08;3.10;;;1.20;;
71878;SDS011;59755;43.834;4.364;2022-09-09T14:14:35;3.83;;;1.38;;
71878;SDS011;59755;43.834;4.364;2022-09-09T14:17:01;3.80;;;1.50;;
71878;SDS011;59755;43.834;4.364;2022-09-09T14:19:28;5.60;;;1.40;;
71878;SDS011;59755;43.834;4.364;2022-09-09T14:21:55;3.35;;;1.15;;
71878;SDS011;59755;43.834;4.364;2022-09-09T14:24:21;3.70;;;1.30;;
71878;SDS011;59755;43.834;4.364;2022-09-09T14:26:47;3.08;;;1.20;;
71878;SDS011;59755;43.834;4.364;2022-09-09T14:29:13;3.15;;;1.13;;
71878;SDS011;59755;43.834;4.364;2022-09-09T14:31:40;4.03;;;1.45;;
71878;SDS011;59755;43.834;4.364;2022-09-09T14:34:06;4.18;;;1.40;;
71878;SDS011;59755;43.834;4.364;2022-09-09T14:36:32;4.32;;;1.20;;
71878;SDS011;59755;43.834;4.364;2022-09-09T14:38:58;3.63;;;1.30;;
71878;SDS011;59755;43.834;4.364;2022-09-09T14:41:24;3.50;;;1.20;;
71878;SDS011;59755;43.834;4.364;2022-09-09T14:43:50;3.83;;;1.25;;
71878;SDS011;59755;43.834;4.364;2022-09-09T14:46:18;3.17;;;1.15;;
71878;SDS011;59755;43.834;4.364;2022-09-09T14:48:45;4.35;;;1.20;;
71878;SDS011;59755;43.834;4.364;2022-09-09T14:53:43;2.70;;;0.90;;
71878;SDS011;59755;43.834;4.364;2022-09-09T14:58:36;3.58;;;0.90;;
71878;SDS011;59755;43.834;4.364;2022-09-09T15:01:09;2.53;;;0.90;;
71878;SDS011;59755;43.834;4.364;2022-09-09T15:03:38;4.55;;;1.00;;
71878;SDS011;59755;43.834;4.364;2022-09-09T15:06:06;3.90;;;1.00;;
71878;SDS011;59755;43.834;4.364;2022-09-09T15:08:33;2.80;;;1.10;;
71878;SDS011;59755;43.834;4.364;2022-09-09T15:11:00;3.25;;;1.00;;
71878;SDS011;59755;43.834;4.364;2022-09-09T15:13:26;2.72;;;0.98;;
71878;SDS011;59755;43.834;4.364;2022-09-09T15:15:53;4.20;;;1.00;;
71878;SDS011;59755;43.834;4.364;2022-09-09T15:18:19;2.22;;;0.80;;
71878;SDS011;59755;43.834;4.364;2022-09-09T15:20:45;4.13;;;1.00;;
71878;SDS011;59755;43.834;4.364;2022-09-09T15:23:13;2.28;;;0.90;;
71878;SDS011;59755;43.834;4.364;2022-09-09T15:25:49;3.13;;;1.00;;
71878;SDS011;59755;43.834;4.364;2022-09-09T15:28:15;2.42;;;0.80;;
71878;SDS011;59755;43.834;4.364;2022-09-09T15:30:41;3.40;;;1.00;;
71878;SDS011;59755;43.834;4.364;2022-09-09T15:33:09;4.05;;;1.00;;
71878;SDS011;59755;43.834;4.364;2022-09-09T15:35:36;3.30;;;0.90;;
71878;SDS011;59755;43.834;4.364;2022-09-09T15:38:02;3.25;;;0.80;;
71878;SDS011;59755;43.834;4.364;2022-09-09T15:40:30;4.22;;;1.10;;
71878;SDS011;59755;43.834;4.364;2022-09-09T15:42:57;3.53;;;0.90;;
71878;SDS011;59755;43.834;4.364;2022-09-09T15:45:23;3.08;;;1.00;;
71878;SDS011;59755;43.834;4.364;2022-09-09T15:47:49;3.60;;;1.05;;
71878;SDS011;59755;43.834;4.364;2022-09-09T15:50:15;4.03;;;0.90;;
71878;SDS011;59755;43.834;4.364;2022-09-09T15:52:42;3.35;;;0.95;;
71878;SDS011;59755;43.834;4.364;2022-09-09T15:55:08;3.15;;;1.00;;
71878;SDS011;59755;43.834;4.364;2022-09-09T15:57:34;3.15;;;1.00;;
71878;SDS011;59755;43.834;4.364;2022-09-09T16:00:01;2.47;;;0.82;;
71878;SDS011;59755;43.834;4.364;2022-09-09T16:02:28;3.03;;;0.90;;
71878;SDS011;59755;43.834;4.364;2022-09-09T16:04:55;3.95;;;0.90;;
71878;SDS011;59755;43.834;4.364;2022-09-09T16:07:22;3.10;;;0.90;;
71878;SDS011;59755;43.834;4.364;2022-09-09T16:09:48;3.92;;;1.00;;
71878;SDS011;59755;43.834;4.364;2022-09-09T16:12:17;2.75;;;0.90;;
71878;SDS011;59755;43.834;4.364;2022-09-09T16:14:43;2.95;;;0.88;;
71878;SDS011;59755;43.834;4.364;2022-09-09T16:17:10;2.60;;;0.80;;
71878;SDS011;59755;43.834;4.364;2022-09-09T16:19:36;3.20;;;0.90;;
71878;SDS011;59755;43.834;4.364;2022-09-09T16:22:02;3.22;;;1.00;;
71878;SDS011;59755;43.834;4.364;2022-09-09T16:24:29;3.58;;;0.82;;
71878;SDS011;59755;43.834;4.364;2022-09-09T16:26:55;2.92;;;0.80;;
71878;SDS011;59755;43.834;4.364;2022-09-09T16:29:22;3.03;;;0.80;;
71878;SDS011;59755;43.834;4.364;2022-09-09T16:31:48;2.55;;;0.90;;
71878;SDS011;59755;43.834;4.364;2022-09-09T16:34:15;3.40;;;0.90;;
71878;SDS011;59755;43.834;4.364;2022-09-09T16:36:42;3.08;;;0.95;;
71878;SDS011;59755;43.834;4.364;2022-09-09T16:39:10;4.03;;;1.13;;
71878;SDS011;59755;43.834;4.364;2022-09-09T16:41:37;2.92;;;0.90;;
71878;SDS011;59755;43.834;4.364;2022-09-09T16:44:04;4.28;;;1.08;;
71878;SDS011;59755;43.834;4.364;2022-09-09T16:46:31;3.38;;;0.90;;
71878;SDS011;59755;43.834;4.364;2022-09-09T16:48:59;3.65;;;0.90;;
71878;SDS011;59755;43.834;4.364;2022-09-09T16:51:26;4.78;;;1.30;;
71878;SDS011;59755;43.834;4.364;2022-09-09T16:53:53;2.65;;;0.90;;
71878;SDS011;59755;43.834;4.364;2022-09-09T16:56:20;4.57;;;0.90;;
71878;SDS011;59755;43.834;4.364;2022-09-09T16:58:50;3.83;;;1.10;;
71878;SDS011;59755;43.834;4.364;2022-09-09T17:01:16;3.65;;;1.00;;
71878;SDS011;59755;43.834;4.364;2022-09-09T17:03:42;2.90;;;0.73;;
71878;SDS011;59755;43.834;4.364;2022-09-09T17:06:09;3.80;;;1.08;;
71878;SDS011;59755;43.834;4.364;2022-09-09T17:08:35;3.28;;;1.05;;
71878;SDS011;59755;43.834;4.364;2022-09-09T17:11:01;2.65;;;1.10;;
71878;SDS011;59755;43.834;4.364;2022-09-09T17:13:28;3.90;;;1.08;;
71878;SDS011;59755;43.834;4.364;2022-09-09T17:15:55;4.63;;;1.20;;
71878;SDS011;59755;43.834;4.364;2022-09-09T17:18:21;4.20;;;1.13;;
71878;SDS011;59755;43.834;4.364;2022-09-09T17:20:47;4.45;;;1.30;;
71878;SDS011;59755;43.834;4.364;2022-09-09T17:23:13;4.32;;;1.30;;
71878;SDS011;59755;43.834;4.364;2022-09-09T17:25:40;5.13;;;1.38;;
71878;SDS011;59755;43.834;4.364;2022-09-09T17:28:06;4.63;;;1.60;;
71878;SDS011;59755;43.834;4.364;2022-09-09T17:30:36;5.97;;;1.23;;
71878;SDS011;59755;43.834;4.364;2022-09-09T17:33:02;6.35;;;1.75;;
71878;SDS011;59755;43.834;4.364;2022-09-09T17:35:29;5.30;;;1.70;;
71878;SDS011;59755;43.834;4.364;2022-09-09T17:37:55;4.65;;;1.60;;
71878;SDS011;59755;43.834;4.364;2022-09-09T17:40:22;4.97;;;1.30;;
71878;SDS011;59755;43.834;4.364;2022-09-09T17:42:48;4.85;;;1.23;;
71878;SDS011;59755;43.834;4.364;2022-09-09T17:45:14;4.38;;;1.30;;